sensor_id;sensor_type;location;lat;lon;timestamp;P1;durP1;ratioP1;P2;durP2;ratioP2
7613;SDS011;3848;42.016;23.098;2024-02-16T00:01:59;4.17;;;3.43;;
7613;SDS011;3848;42.016;23.098;2024-02-16T00:04:26;8.03;;;4.10;;
7613;SDS011;3848;42.016;23.098;2024-02-16T00:06:55;8.90;;;4.00;;
7613;SDS011;3848;42.016;23.098;2024-02-16T00:09:22;5.40;;;4.07;;
7613;SDS011;3848;42.016;23.098;2024-02-16T00:11:49;4.40;;;3.90;;
7613;SDS011;3848;42.016;23.098;2024-02-16T00:14:17;6.40;;;3.97;;
7613;SDS011;3848;42.016;23.098;2024-02-16T00:16:45;8.97;;;4.53;;
7613;SDS011;3848;42.016;23.098;2024-02-16T00:19:12;14.10;;;4.23;;
7613;SDS011;3848;42.016;23.098;2024-02-16T00:21:39;6.93;;;4.17;;
7613;SDS011;3848;42.016;23.098;2024-02-16T00:24:08;6.07;;;4.37;;
7613;SDS011;3848;42.016;23.098;2024-02-16T00:26:36;5.37;;;4.00;;
7613;SDS011;3848;42.016;23.098;2024-02-16T00:29:04;4.83;;;4.00;;
7613;SDS011;3848;42.016;23.098;2024-02-16T00:31:31;10.23;;;4.23;;
7613;SDS011;3848;42.016;23.098;2024-02-16T00:33:58;8.13;;;4.73;;
7613;SDS011;3848;42.016;23.098;2024-02-16T00:36:25;6.43;;;4.47;;
7613;SDS011;3848;42.016;23.098;2024-02-16T00:38:53;5.07;;;3.93;;
7613;SDS011;3848;42.016;23.098;2024-02-16T00:41:21;5.10;;;3.77;;
7613;SDS011;3848;42.016;23.098;2024-02-16T00:43:49;8.30;;;4.13;;
7613;SDS011;3848;42.016;23.098;2024-02-16T00:46:17;8.17;;;4.70;;
7613;SDS011;3848;42.016;23.098;2024-02-16T00:48:44;6.20;;;4.30;;
7613;SDS011;3848;42.016;23.098;2024-02-16T00:51:12;4.10;;;3.63;;
7613;SDS011;3848;42.016;23.098;2024-02-16T00:53:39;6.00;;;3.90;;
7613;SDS011;3848;42.016;23.098;2024-02-16T00:56:07;7.73;;;4.43;;
7613;SDS011;3848;42.016;23.098;2024-02-16T00:58:35;3.90;;;3.43;;
7613;SDS011;3848;42.016;23.098;2024-02-16T01:01:04;4.50;;;3.57;;
7613;SDS011;3848;42.016;23.098;2024-02-16T01:03:35;5.00;;;3.43;;
7613;SDS011;3848;42.016;23.098;2024-02-16T01:06:02;4.57;;;3.57;;
7613;SDS011;3848;42.016;23.098;2024-02-16T01:08:30;5.53;;;3.77;;
7613;SDS011;3848;42.016;23.098;2024-02-16T01:10:58;5.40;;;4.43;;
7613;SDS011;3848;42.016;23.098;2024-02-16T01:13:25;7.67;;;3.80;;
7613;SDS011;3848;42.016;23.098;2024-02-16T01:15:53;7.80;;;4.07;;
7613;SDS011;3848;42.016;23.098;2024-02-16T01:18:20;7.03;;;4.63;;
7613;SDS011;3848;42.016;23.098;2024-02-16T01:20:47;7.00;;;4.40;;
7613;SDS011;3848;42.016;23.098;2024-02-16T01:23:14;6.43;;;4.23;;
7613;SDS011;3848;42.016;23.098;2024-02-16T01:25:41;5.73;;;4.17;;
7613;SDS011;3848;42.016;23.098;2024-02-16T01:28:08;5.57;;;3.83;;
7613;SDS011;3848;42.016;23.098;2024-02-16T01:30:37;12.50;;;6.07;;
7613;SDS011;3848;42.016;23.098;2024-02-16T01:33:06;11.70;;;5.20;;
7613;SDS011;3848;42.016;23.098;2024-02-16T01:35:33;14.83;;;5.23;;
7613;SDS011;3848;42.016;23.098;2024-02-16T01:38:00;7.87;;;5.17;;
7613;SDS011;3848;42.016;23.098;2024-02-16T01:40:27;14.37;;;5.43;;
7613;SDS011;3848;42.016;23.098;2024-02-16T01:42:55;10.77;;;5.70;;
7613;SDS011;3848;42.016;23.098;2024-02-16T01:45:22;8.27;;;5.57;;
7613;SDS011;3848;42.016;23.098;2024-02-16T01:47:49;9.00;;;4.90;;
7613;SDS011;3848;42.016;23.098;2024-02-16T01:50:18;12.47;;;4.73;;
7613;SDS011;3848;42.016;23.098;2024-02-16T01:52:46;9.63;;;5.27;;
7613;SDS011;3848;42.016;23.098;2024-02-16T01:55:14;8.13;;;4.53;;
7613;SDS011;3848;42.016;23.098;2024-02-16T01:57:42;6.83;;;3.80;;
7613;SDS011;3848;42.016;23.098;2024-02-16T02:00:11;4.97;;;4.10;;
7613;SDS011;3848;42.016;23.098;2024-02-16T02:02:40;5.57;;;4.10;;
7613;SDS011;3848;42.016;23.098;2024-02-16T02:05:07;6.37;;;4.13;;
7613;SDS011;3848;42.016;23.098;2024-02-16T02:07:36;5.43;;;4.20;;
7613;SDS011;3848;42.016;23.098;2024-02-16T02:10:03;30.03;;;5.40;;
7613;SDS011;3848;42.016;23.098;2024-02-16T02:12:30;8.07;;;4.37;;
7613;SDS011;3848;42.016;23.098;2024-02-16T02:14:57;6.70;;;4.27;;
7613;SDS011;3848;42.016;23.098;2024-02-16T02:17:24;6.07;;;4.03;;
7613;SDS011;3848;42.016;23.098;2024-02-16T02:19:51;6.33;;;4.37;;
7613;SDS011;3848;42.016;23.098;2024-02-16T02:22:20;6.20;;;4.27;;
7613;SDS011;3848;42.016;23.098;2024-02-16T02:24:47;8.93;;;4.53;;
7613;SDS011;3848;42.016;23.098;2024-02-16T02:27:15;7.13;;;4.67;;
7613;SDS011;3848;42.016;23.098;2024-02-16T02:29:42;4.87;;;3.67;;
7613;SDS011;3848;42.016;23.098;2024-02-16T02:32:10;6.50;;;4.43;;
7613;SDS011;3848;42.016;23.098;2024-02-16T02:34:37;5.90;;;3.87;;
7613;SDS011;3848;42.016;23.098;2024-02-16T02:37:04;6.03;;;3.67;;
7613;SDS011;3848;42.016;23.098;2024-02-16T02:39:33;6.57;;;3.90;;
7613;SDS011;3848;42.016;23.098;2024-02-16T02:42:00;8.60;;;4.43;;
7613;SDS011;3848;42.016;23.098;2024-02-16T02:44:28;11.17;;;3.60;;
7613;SDS011;3848;42.016;23.098;2024-02-16T02:46:56;4.57;;;3.37;;
7613;SDS011;3848;42.016;23.098;2024-02-16T02:49:23;6.30;;;3.83;;
7613;SDS011;3848;42.016;23.098;2024-02-16T02:51:50;7.93;;;4.30;;
7613;SDS011;3848;42.016;23.098;2024-02-16T02:54:17;7.53;;;4.20;;
7613;SDS011;3848;42.016;23.098;2024-02-16T02:56:46;4.90;;;3.60;;
7613;SDS011;3848;42.016;23.098;2024-02-16T02:59:13;5.93;;;4.40;;
7613;SDS011;3848;42.016;23.098;2024-02-16T03:01:40;7.17;;;4.00;;
7613;SDS011;3848;42.016;23.098;2024-02-16T03:04:07;7.63;;;4.03;;
7613;SDS011;3848;42.016;23.098;2024-02-16T03:06:34;4.93;;;3.67;;
7613;SDS011;3848;42.016;23.098;2024-02-16T03:09:01;4.87;;;3.77;;
7613;SDS011;3848;42.016;23.098;2024-02-16T03:11:28;4.47;;;3.80;;
7613;SDS011;3848;42.016;23.098;2024-02-16T03:13:57;5.13;;;3.77;;
7613;SDS011;3848;42.016;23.098;2024-02-16T03:16:24;5.37;;;4.33;;
7613;SDS011;3848;42.016;23.098;2024-02-16T03:18:51;6.53;;;3.73;;
7613;SDS011;3848;42.016;23.098;2024-02-16T03:21:17;5.37;;;4.10;;
7613;SDS011;3848;42.016;23.098;2024-02-16T03:23:46;6.17;;;4.00;;
7613;SDS011;3848;42.016;23.098;2024-02-16T03:26:13;6.53;;;4.23;;
7613;SDS011;3848;42.016;23.098;2024-02-16T03:28:43;17.60;;;6.50;;
7613;SDS011;3848;42.016;23.098;2024-02-16T03:31:16;12.73;;;6.83;;
7613;SDS011;3848;42.016;23.098;2024-02-16T03:33:43;11.00;;;5.30;;
7613;SDS011;3848;42.016;23.098;2024-02-16T03:36:10;7.27;;;4.83;;
7613;SDS011;3848;42.016;23.098;2024-02-16T03:38:40;10.77;;;5.87;;
7613;SDS011;3848;42.016;23.098;2024-02-16T03:41:08;10.37;;;5.43;;
7613;SDS011;3848;42.016;23.098;2024-02-16T03:43:39;9.97;;;5.33;;
7613;SDS011;3848;42.016;23.098;2024-02-16T03:46:06;8.40;;;6.10;;
7613;SDS011;3848;42.016;23.098;2024-02-16T03:48:34;11.37;;;5.90;;
7613;SDS011;3848;42.016;23.098;2024-02-16T03:51:01;9.10;;;6.57;;
7613;SDS011;3848;42.016;23.098;2024-02-16T03:53:29;15.03;;;6.50;;
7613;SDS011;3848;42.016;23.098;2024-02-16T03:55:56;13.20;;;6.10;;
7613;SDS011;3848;42.016;23.098;2024-02-16T03:58:23;8.57;;;5.57;;
7613;SDS011;3848;42.016;23.098;2024-02-16T04:00:51;9.27;;;5.30;;
7613;SDS011;3848;42.016;23.098;2024-02-16T04:03:19;8.73;;;5.27;;
7613;SDS011;3848;42.016;23.098;2024-02-16T04:05:47;9.57;;;6.00;;
7613;SDS011;3848;42.016;23.098;2024-02-16T04:08:14;10.63;;;6.50;;
7613;SDS011;3848;42.016;23.098;2024-02-16T04:10:41;14.00;;;6.83;;
7613;SDS011;3848;42.016;23.098;2024-02-16T04:13:08;10.20;;;6.07;;
7613;SDS011;3848;42.016;23.098;2024-02-16T04:15:35;10.63;;;5.53;;
7613;SDS011;3848;42.016;23.098;2024-02-16T04:18:03;9.00;;;5.20;;
7613;SDS011;3848;42.016;23.098;2024-02-16T04:20:31;9.20;;;5.47;;
7613;SDS011;3848;42.016;23.098;2024-02-16T04:23:00;8.57;;;5.43;;
7613;SDS011;3848;42.016;23.098;2024-02-16T04:25:27;10.07;;;5.67;;
7613;SDS011;3848;42.016;23.098;2024-02-16T04:27:54;7.60;;;5.23;;
7613;SDS011;3848;42.016;23.098;2024-02-16T04:30:21;7.13;;;5.20;;
7613;SDS011;3848;42.016;23.098;2024-02-16T04:32:48;12.10;;;5.63;;
7613;SDS011;3848;42.016;23.098;2024-02-16T04:35:15;10.97;;;5.30;;
7613;SDS011;3848;42.016;23.098;2024-02-16T04:37:42;12.67;;;6.37;;
7613;SDS011;3848;42.016;23.098;2024-02-16T04:40:11;14.53;;;6.10;;
7613;SDS011;3848;42.016;23.098;2024-02-16T04:42:38;11.13;;;6.47;;
7613;SDS011;3848;42.016;23.098;2024-02-16T04:45:07;8.53;;;6.53;;
7613;SDS011;3848;42.016;23.098;2024-02-16T04:47:37;11.57;;;6.20;;
7613;SDS011;3848;42.016;23.098;2024-02-16T04:50:04;11.97;;;6.03;;
7613;SDS011;3848;42.016;23.098;2024-02-16T04:52:35;10.07;;;6.97;;
7613;SDS011;3848;42.016;23.098;2024-02-16T04:55:04;12.33;;;5.97;;
7613;SDS011;3848;42.016;23.098;2024-02-16T04:57:33;9.30;;;5.60;;
7613;SDS011;3848;42.016;23.098;2024-02-16T05:00:00;12.40;;;6.00;;
7613;SDS011;3848;42.016;23.098;2024-02-16T05:02:27;13.50;;;6.77;;
7613;SDS011;3848;42.016;23.098;2024-02-16T05:04:54;13.70;;;6.73;;
7613;SDS011;3848;42.016;23.098;2024-02-16T05:07:21;12.77;;;6.60;;
7613;SDS011;3848;42.016;23.098;2024-02-16T05:09:48;11.83;;;6.17;;
7613;SDS011;3848;42.016;23.098;2024-02-16T05:12:20;9.83;;;6.23;;
7613;SDS011;3848;42.016;23.098;2024-02-16T05:14:49;9.60;;;5.90;;
7613;SDS011;3848;42.016;23.098;2024-02-16T05:17:18;10.50;;;6.40;;
7613;SDS011;3848;42.016;23.098;2024-02-16T05:19:47;10.20;;;6.97;;
7613;SDS011;3848;42.016;23.098;2024-02-16T05:22:15;11.00;;;6.63;;
7613;SDS011;3848;42.016;23.098;2024-02-16T05:24:43;9.93;;;5.77;;
7613;SDS011;3848;42.016;23.098;2024-02-16T05:27:10;14.57;;;6.07;;
7613;SDS011;3848;42.016;23.098;2024-02-16T05:29:37;11.00;;;6.83;;
7613;SDS011;3848;42.016;23.098;2024-02-16T05:32:06;12.07;;;6.93;;
7613;SDS011;3848;42.016;23.098;2024-02-16T05:34:33;12.00;;;7.20;;
7613;SDS011;3848;42.016;23.098;2024-02-16T05:37:03;11.37;;;7.13;;
7613;SDS011;3848;42.016;23.098;2024-02-16T05:39:32;12.70;;;7.17;;
7613;SDS011;3848;42.016;23.098;2024-02-16T05:42:01;13.23;;;7.43;;
7613;SDS011;3848;42.016;23.098;2024-02-16T05:44:28;14.80;;;8.03;;
7613;SDS011;3848;42.016;23.098;2024-02-16T05:46:57;13.80;;;8.67;;
7613;SDS011;3848;42.016;23.098;2024-02-16T05:49:26;14.07;;;7.60;;
7613;SDS011;3848;42.016;23.098;2024-02-16T05:51:53;17.53;;;8.23;;
7613;SDS011;3848;42.016;23.098;2024-02-16T05:54:34;13.17;;;7.67;;
7613;SDS011;3848;42.016;23.098;2024-02-16T05:57:01;16.07;;;8.20;;
7613;SDS011;3848;42.016;23.098;2024-02-16T05:59:30;14.03;;;7.77;;
7613;SDS011;3848;42.016;23.098;2024-02-16T06:02:00;16.00;;;7.83;;
7613;SDS011;3848;42.016;23.098;2024-02-16T06:04:29;13.30;;;7.20;;
7613;SDS011;3848;42.016;23.098;2024-02-16T06:06:56;15.43;;;8.10;;
7613;SDS011;3848;42.016;23.098;2024-02-16T06:09:23;16.73;;;8.10;;
7613;SDS011;3848;42.016;23.098;2024-02-16T06:11:50;14.32;;;8.27;;
7613;SDS011;3848;42.016;23.098;2024-02-16T06:14:17;10.77;;;8.00;;
7613;SDS011;3848;42.016;23.098;2024-02-16T06:16:44;16.80;;;9.57;;
7613;SDS011;3848;42.016;23.098;2024-02-16T06:19:12;16.33;;;9.53;;
7613;SDS011;3848;42.016;23.098;2024-02-16T06:21:41;21.80;;;9.83;;
7613;SDS011;3848;42.016;23.098;2024-02-16T06:24:08;18.73;;;10.33;;
7613;SDS011;3848;42.016;23.098;2024-02-16T06:26:36;19.00;;;11.67;;
7613;SDS011;3848;42.016;23.098;2024-02-16T06:29:05;17.53;;;10.83;;
7613;SDS011;3848;42.016;23.098;2024-02-16T06:31:34;19.93;;;10.63;;
7613;SDS011;3848;42.016;23.098;2024-02-16T06:34:01;16.97;;;9.50;;
7613;SDS011;3848;42.016;23.098;2024-02-16T06:36:28;18.47;;;10.10;;
7613;SDS011;3848;42.016;23.098;2024-02-16T06:38:56;18.00;;;9.90;;
7613;SDS011;3848;42.016;23.098;2024-02-16T06:41:23;30.30;;;12.00;;
7613;SDS011;3848;42.016;23.098;2024-02-16T06:43:52;27.30;;;13.13;;
7613;SDS011;3848;42.016;23.098;2024-02-16T06:46:28;36.80;;;14.57;;
7613;SDS011;3848;42.016;23.098;2024-02-16T06:48:55;42.60;;;17.67;;
7613;SDS011;3848;42.016;23.098;2024-02-16T06:51:23;42.37;;;26.90;;
7613;SDS011;3848;42.016;23.098;2024-02-16T06:53:51;41.77;;;21.63;;
7613;SDS011;3848;42.016;23.098;2024-02-16T06:56:20;29.43;;;16.40;;
7613;SDS011;3848;42.016;23.098;2024-02-16T06:58:48;22.80;;;14.73;;
7613;SDS011;3848;42.016;23.098;2024-02-16T07:01:15;24.70;;;17.77;;
7613;SDS011;3848;42.016;23.098;2024-02-16T07:03:43;30.17;;;18.47;;
7613;SDS011;3848;42.016;23.098;2024-02-16T07:06:11;32.67;;;18.57;;
7613;SDS011;3848;42.016;23.098;2024-02-16T07:08:39;32.30;;;15.70;;
7613;SDS011;3848;42.016;23.098;2024-02-16T07:11:06;23.77;;;14.50;;
7613;SDS011;3848;42.016;23.098;2024-02-16T07:13:34;25.23;;;14.17;;
7613;SDS011;3848;42.016;23.098;2024-02-16T07:16:04;26.57;;;15.23;;
7613;SDS011;3848;42.016;23.098;2024-02-16T07:18:32;29.90;;;15.40;;
7613;SDS011;3848;42.016;23.098;2024-02-16T07:20:59;25.93;;;14.20;;
7613;SDS011;3848;42.016;23.098;2024-02-16T07:23:26;26.00;;;14.90;;
7613;SDS011;3848;42.016;23.098;2024-02-16T07:25:53;29.87;;;16.13;;
7613;SDS011;3848;42.016;23.098;2024-02-16T07:28:22;30.37;;;17.60;;
7613;SDS011;3848;42.016;23.098;2024-02-16T07:30:51;30.43;;;17.80;;
7613;SDS011;3848;42.016;23.098;2024-02-16T07:33:18;27.10;;;16.97;;
7613;SDS011;3848;42.016;23.098;2024-02-16T07:35:45;28.77;;;16.83;;
7613;SDS011;3848;42.016;23.098;2024-02-16T07:38:12;23.17;;;15.13;;
7613;SDS011;3848;42.016;23.098;2024-02-16T07:40:39;22.23;;;12.63;;
7613;SDS011;3848;42.016;23.098;2024-02-16T07:43:06;21.33;;;13.20;;
7613;SDS011;3848;42.016;23.098;2024-02-16T07:45:33;25.07;;;18.50;;
7613;SDS011;3848;42.016;23.098;2024-02-16T07:48:02;24.47;;;14.27;;
7613;SDS011;3848;42.016;23.098;2024-02-16T07:50:30;22.97;;;14.33;;
7613;SDS011;3848;42.016;23.098;2024-02-16T07:52:58;16.73;;;12.83;;
7613;SDS011;3848;42.016;23.098;2024-02-16T07:55:25;16.00;;;12.90;;
7613;SDS011;3848;42.016;23.098;2024-02-16T07:57:51;20.83;;;11.50;;
7613;SDS011;3848;42.016;23.098;2024-02-16T08:00:19;18.03;;;12.50;;
7613;SDS011;3848;42.016;23.098;2024-02-16T08:02:46;24.57;;;13.73;;
7613;SDS011;3848;42.016;23.098;2024-02-16T08:05:15;23.13;;;12.80;;
7613;SDS011;3848;42.016;23.098;2024-02-16T08:07:44;29.83;;;12.47;;
7613;SDS011;3848;42.016;23.098;2024-02-16T08:10:12;27.27;;;14.20;;
7613;SDS011;3848;42.016;23.098;2024-02-16T08:12:39;28.03;;;15.40;;
7613;SDS011;3848;42.016;23.098;2024-02-16T08:15:07;17.27;;;12.27;;
7613;SDS011;3848;42.016;23.098;2024-02-16T08:17:36;27.80;;;12.07;;
7613;SDS011;3848;42.016;23.098;2024-02-16T08:20:03;26.23;;;11.90;;
7613;SDS011;3848;42.016;23.098;2024-02-16T08:22:33;17.03;;;10.20;;
7613;SDS011;3848;42.016;23.098;2024-02-16T08:25:01;22.37;;;12.00;;
7613;SDS011;3848;42.016;23.098;2024-02-16T08:27:29;20.13;;;10.00;;
7613;SDS011;3848;42.016;23.098;2024-02-16T08:29:57;16.13;;;10.30;;
7613;SDS011;3848;42.016;23.098;2024-02-16T08:32:24;22.67;;;9.73;;
7613;SDS011;3848;42.016;23.098;2024-02-16T08:34:52;18.97;;;9.00;;
7613;SDS011;3848;42.016;23.098;2024-02-16T08:37:21;18.23;;;9.23;;
7613;SDS011;3848;42.016;23.098;2024-02-16T08:39:49;17.87;;;9.03;;
7613;SDS011;3848;42.016;23.098;2024-02-16T08:42:17;21.57;;;10.43;;
7613;SDS011;3848;42.016;23.098;2024-02-16T08:44:44;19.10;;;9.63;;
7613;SDS011;3848;42.016;23.098;2024-02-16T08:47:11;13.30;;;8.07;;
7613;SDS011;3848;42.016;23.098;2024-02-16T08:49:41;19.07;;;8.93;;
7613;SDS011;3848;42.016;23.098;2024-02-16T08:52:11;25.03;;;8.53;;
7613;SDS011;3848;42.016;23.098;2024-02-16T08:54:38;17.83;;;8.30;;
7613;SDS011;3848;42.016;23.098;2024-02-16T08:57:07;23.10;;;9.73;;
7613;SDS011;3848;42.016;23.098;2024-02-16T08:59:35;17.00;;;9.00;;
7613;SDS011;3848;42.016;23.098;2024-02-16T09:02:02;11.27;;;7.80;;
7613;SDS011;3848;42.016;23.098;2024-02-16T09:04:29;11.20;;;7.20;;
7613;SDS011;3848;42.016;23.098;2024-02-16T09:06:56;18.80;;;11.40;;
7613;SDS011;3848;42.016;23.098;2024-02-16T09:09:23;14.50;;;8.70;;
7613;SDS011;3848;42.016;23.098;2024-02-16T09:11:51;16.17;;;7.57;;
7613;SDS011;3848;42.016;23.098;2024-02-16T09:14:20;21.57;;;9.20;;
7613;SDS011;3848;42.016;23.098;2024-02-16T09:16:48;14.83;;;7.93;;
7613;SDS011;3848;42.016;23.098;2024-02-16T09:19:17;18.73;;;8.80;;
7613;SDS011;3848;42.016;23.098;2024-02-16T09:21:44;15.13;;;8.20;;
7613;SDS011;3848;42.016;23.098;2024-02-16T09:24:11;15.00;;;8.80;;
7613;SDS011;3848;42.016;23.098;2024-02-16T09:26:43;17.03;;;8.30;;
7613;SDS011;3848;42.016;23.098;2024-02-16T09:29:11;15.67;;;7.93;;
7613;SDS011;3848;42.016;23.098;2024-02-16T09:31:40;11.60;;;7.60;;
7613;SDS011;3848;42.016;23.098;2024-02-16T09:34:07;12.70;;;8.47;;
7613;SDS011;3848;42.016;23.098;2024-02-16T09:36:34;15.83;;;7.73;;
7613;SDS011;3848;42.016;23.098;2024-02-16T09:39:04;18.23;;;7.07;;
7613;SDS011;3848;42.016;23.098;2024-02-16T09:41:32;16.70;;;7.23;;
7613;SDS011;3848;42.016;23.098;2024-02-16T09:44:01;11.93;;;7.13;;
7613;SDS011;3848;42.016;23.098;2024-02-16T09:46:29;14.17;;;6.10;;
7613;SDS011;3848;42.016;23.098;2024-02-16T09:48:58;19.03;;;7.43;;
7613;SDS011;3848;42.016;23.098;2024-02-16T09:51:28;21.00;;;7.80;;
7613;SDS011;3848;42.016;23.098;2024-02-16T09:53:55;12.17;;;7.97;;
7613;SDS011;3848;42.016;23.098;2024-02-16T09:56:22;9.43;;;6.40;;
7613;SDS011;3848;42.016;23.098;2024-02-16T09:58:50;13.30;;;6.67;;
7613;SDS011;3848;42.016;23.098;2024-02-16T10:01:18;15.53;;;6.70;;
7613;SDS011;3848;42.016;23.098;2024-02-16T10:03:46;21.60;;;7.37;;
7613;SDS011;3848;42.016;23.098;2024-02-16T10:06:15;10.83;;;6.27;;
7613;SDS011;3848;42.016;23.098;2024-02-16T10:08:49;53.93;;;21.93;;
7613;SDS011;3848;42.016;23.098;2024-02-16T10:11:17;12.03;;;7.43;;
7613;SDS011;3848;42.016;23.098;2024-02-16T10:13:55;22.63;;;8.90;;
7613;SDS011;3848;42.016;23.098;2024-02-16T10:16:26;18.07;;;9.10;;
7613;SDS011;3848;42.016;23.098;2024-02-16T10:18:54;7.03;;;5.00;;
7613;SDS011;3848;42.016;23.098;2024-02-16T10:21:27;11.93;;;4.87;;
7613;SDS011;3848;42.016;23.098;2024-02-16T10:23:56;8.60;;;6.57;;
7613;SDS011;3848;42.016;23.098;2024-02-16T10:26:24;7.40;;;3.93;;
7613;SDS011;3848;42.016;23.098;2024-02-16T10:28:51;8.47;;;5.10;;
7613;SDS011;3848;42.016;23.098;2024-02-16T10:31:22;28.63;;;19.40;;
7613;SDS011;3848;42.016;23.098;2024-02-16T10:33:54;9.60;;;4.63;;
7613;SDS011;3848;42.016;23.098;2024-02-16T10:36:24;12.60;;;4.23;;
7613;SDS011;3848;42.016;23.098;2024-02-16T10:38:55;15.73;;;9.93;;
7613;SDS011;3848;42.016;23.098;2024-02-16T10:41:25;12.37;;;9.57;;
7613;SDS011;3848;42.016;23.098;2024-02-16T10:43:55;14.80;;;9.30;;
7613;SDS011;3848;42.016;23.098;2024-02-16T10:46:22;20.83;;;14.93;;
7613;SDS011;3848;42.016;23.098;2024-02-16T10:48:50;9.20;;;5.63;;
7613;SDS011;3848;42.016;23.098;2024-02-16T10:51:22;11.43;;;4.63;;
7613;SDS011;3848;42.016;23.098;2024-02-16T10:53:55;33.93;;;19.60;;
7613;SDS011;3848;42.016;23.098;2024-02-16T10:56:32;18.67;;;9.63;;
7613;SDS011;3848;42.016;23.098;2024-02-16T10:59:00;6.60;;;3.63;;
7613;SDS011;3848;42.016;23.098;2024-02-16T11:01:37;8.43;;;3.67;;
7613;SDS011;3848;42.016;23.098;2024-02-16T11:04:06;23.93;;;14.43;;
7613;SDS011;3848;42.016;23.098;2024-02-16T11:06:46;7.63;;;3.77;;
7613;SDS011;3848;42.016;23.098;2024-02-16T11:09:25;10.07;;;2.97;;
7613;SDS011;3848;42.016;23.098;2024-02-16T11:11:53;30.00;;;14.70;;
7613;SDS011;3848;42.016;23.098;2024-02-16T11:14:21;18.27;;;10.10;;
7613;SDS011;3848;42.016;23.098;2024-02-16T11:16:49;6.20;;;3.77;;
7613;SDS011;3848;42.016;23.098;2024-02-16T11:19:19;18.00;;;9.43;;
7613;SDS011;3848;42.016;23.098;2024-02-16T11:21:55;5.30;;;3.37;;
7613;SDS011;3848;42.016;23.098;2024-02-16T11:24:31;6.43;;;3.93;;
7613;SDS011;3848;42.016;23.098;2024-02-16T11:27:00;4.13;;;3.07;;
7613;SDS011;3848;42.016;23.098;2024-02-16T11:29:30;5.67;;;3.30;;
7613;SDS011;3848;42.016;23.098;2024-02-16T11:31:59;4.00;;;3.13;;
7613;SDS011;3848;42.016;23.098;2024-02-16T11:34:30;6.67;;;3.60;;
7613;SDS011;3848;42.016;23.098;2024-02-16T11:36:59;7.33;;;3.33;;
7613;SDS011;3848;42.016;23.098;2024-02-16T11:39:27;3.80;;;3.20;;
7613;SDS011;3848;42.016;23.098;2024-02-16T11:42:01;2.80;;;2.43;;
7613;SDS011;3848;42.016;23.098;2024-02-16T11:44:29;4.37;;;2.53;;
7613;SDS011;3848;42.016;23.098;2024-02-16T11:46:58;7.63;;;5.37;;
7613;SDS011;3848;42.016;23.098;2024-02-16T11:49:26;36.93;;;21.23;;
7613;SDS011;3848;42.016;23.098;2024-02-16T11:51:55;26.30;;;16.60;;
7613;SDS011;3848;42.016;23.098;2024-02-16T11:54:23;5.27;;;4.00;;
7613;SDS011;3848;42.016;23.098;2024-02-16T11:57:04;2.73;;;2.27;;
7613;SDS011;3848;42.016;23.098;2024-02-16T11:59:31;3.13;;;1.77;;
7613;SDS011;3848;42.016;23.098;2024-02-16T12:01:59;2.60;;;1.40;;
7613;SDS011;3848;42.016;23.098;2024-02-16T12:04:28;4.23;;;2.07;;
7613;SDS011;3848;42.016;23.098;2024-02-16T12:06:58;2.00;;;1.77;;
7613;SDS011;3848;42.016;23.098;2024-02-16T12:09:27;4.60;;;2.60;;
7613;SDS011;3848;42.016;23.098;2024-02-16T12:11:57;6.17;;;3.00;;
7613;SDS011;3848;42.016;23.098;2024-02-16T12:14:26;1.60;;;1.50;;
7613;SDS011;3848;42.016;23.098;2024-02-16T12:16:56;2.13;;;1.70;;
7613;SDS011;3848;42.016;23.098;2024-02-16T12:19:27;7.47;;;3.87;;
7613;SDS011;3848;42.016;23.098;2024-02-16T12:21:57;2.37;;;2.13;;
7613;SDS011;3848;42.016;23.098;2024-02-16T12:24:24;4.40;;;2.00;;
7613;SDS011;3848;42.016;23.098;2024-02-16T12:26:57;10.43;;;4.30;;
7613;SDS011;3848;42.016;23.098;2024-02-16T12:29:26;5.37;;;2.63;;
7613;SDS011;3848;42.016;23.098;2024-02-16T12:31:54;5.60;;;1.97;;
7613;SDS011;3848;42.016;23.098;2024-02-16T12:34:26;15.13;;;2.03;;
7613;SDS011;3848;42.016;23.098;2024-02-16T12:36:54;2.33;;;2.03;;
7613;SDS011;3848;42.016;23.098;2024-02-16T12:39:21;9.80;;;6.20;;
7613;SDS011;3848;42.016;23.098;2024-02-16T12:41:49;1.80;;;1.60;;
7613;SDS011;3848;42.016;23.098;2024-02-16T12:44:16;1.60;;;1.50;;
7613;SDS011;3848;42.016;23.098;2024-02-16T12:46:48;2.37;;;1.73;;
7613;SDS011;3848;42.016;23.098;2024-02-16T12:49:16;2.80;;;1.70;;
7613;SDS011;3848;42.016;23.098;2024-02-16T12:51:47;2.23;;;2.03;;
7613;SDS011;3848;42.016;23.098;2024-02-16T12:54:15;2.53;;;1.93;;
7613;SDS011;3848;42.016;23.098;2024-02-16T12:56:44;8.47;;;1.50;;
7613;SDS011;3848;42.016;23.098;2024-02-16T12:59:11;1.87;;;1.57;;
7613;SDS011;3848;42.016;23.098;2024-02-16T13:01:38;6.63;;;1.90;;
7613;SDS011;3848;42.016;23.098;2024-02-16T13:04:09;3.73;;;1.60;;
7613;SDS011;3848;42.016;23.098;2024-02-16T13:06:36;1.70;;;1.60;;
7613;SDS011;3848;42.016;23.098;2024-02-16T13:09:03;4.33;;;2.27;;
7613;SDS011;3848;42.016;23.098;2024-02-16T13:11:30;5.30;;;3.80;;
7613;SDS011;3848;42.016;23.098;2024-02-16T13:13:58;2.67;;;2.10;;
7613;SDS011;3848;42.016;23.098;2024-02-16T13:16:25;1.90;;;1.80;;
7613;SDS011;3848;42.016;23.098;2024-02-16T13:18:53;2.40;;;2.20;;
7613;SDS011;3848;42.016;23.098;2024-02-16T13:21:21;4.50;;;2.87;;
7613;SDS011;3848;42.016;23.098;2024-02-16T13:23:48;3.73;;;2.20;;
7613;SDS011;3848;42.016;23.098;2024-02-16T13:26:15;1.87;;;1.77;;
7613;SDS011;3848;42.016;23.098;2024-02-16T13:28:46;3.53;;;1.90;;
7613;SDS011;3848;42.016;23.098;2024-02-16T13:31:21;1.97;;;1.87;;
7613;SDS011;3848;42.016;23.098;2024-02-16T13:33:51;5.87;;;2.50;;
7613;SDS011;3848;42.016;23.098;2024-02-16T13:36:21;5.77;;;2.37;;
7613;SDS011;3848;42.016;23.098;2024-02-16T13:38:53;4.40;;;2.47;;
7613;SDS011;3848;42.016;23.098;2024-02-16T13:41:21;2.93;;;1.93;;
7613;SDS011;3848;42.016;23.098;2024-02-16T13:43:52;1.80;;;1.70;;
7613;SDS011;3848;42.016;23.098;2024-02-16T13:46:19;2.70;;;1.67;;
7613;SDS011;3848;42.016;23.098;2024-02-16T13:48:46;3.00;;;2.17;;
7613;SDS011;3848;42.016;23.098;2024-02-16T13:51:14;2.83;;;1.60;;
7613;SDS011;3848;42.016;23.098;2024-02-16T13:53:42;1.53;;;1.40;;
7613;SDS011;3848;42.016;23.098;2024-02-16T13:56:09;4.13;;;1.67;;
7613;SDS011;3848;42.016;23.098;2024-02-16T13:58:37;1.80;;;1.70;;
7613;SDS011;3848;42.016;23.098;2024-02-16T14:01:05;3.17;;;1.50;;
7613;SDS011;3848;42.016;23.098;2024-02-16T14:03:33;2.93;;;1.50;;
7613;SDS011;3848;42.016;23.098;2024-02-16T14:06:01;1.83;;;1.67;;
7613;SDS011;3848;42.016;23.098;2024-02-16T14:08:29;4.87;;;3.60;;
7613;SDS011;3848;42.016;23.098;2024-02-16T14:10:58;1.63;;;1.53;;
7613;SDS011;3848;42.016;23.098;2024-02-16T14:13:25;2.53;;;1.67;;
7613;SDS011;3848;42.016;23.098;2024-02-16T14:15:52;2.10;;;1.47;;
7613;SDS011;3848;42.016;23.098;2024-02-16T14:18:20;1.70;;;1.60;;
7613;SDS011;3848;42.016;23.098;2024-02-16T14:20:47;5.13;;;1.60;;
7613;SDS011;3848;42.016;23.098;2024-02-16T14:23:14;1.90;;;1.50;;
7613;SDS011;3848;42.016;23.098;2024-02-16T14:25:41;3.73;;;2.30;;
7613;SDS011;3848;42.016;23.098;2024-02-16T14:28:10;3.73;;;2.40;;
7613;SDS011;3848;42.016;23.098;2024-02-16T14:30:37;7.33;;;4.63;;
7613;SDS011;3848;42.016;23.098;2024-02-16T14:33:05;6.37;;;2.83;;
7613;SDS011;3848;42.016;23.098;2024-02-16T14:35:32;2.63;;;2.07;;
7613;SDS011;3848;42.016;23.098;2024-02-16T14:38:01;3.63;;;2.70;;
7613;SDS011;3848;42.016;23.098;2024-02-16T14:40:30;4.23;;;2.07;;
7613;SDS011;3848;42.016;23.098;2024-02-16T14:42:58;3.27;;;2.20;;
7613;SDS011;3848;42.016;23.098;2024-02-16T14:45:26;8.90;;;1.80;;
7613;SDS011;3848;42.016;23.098;2024-02-16T14:47:54;5.77;;;2.07;;
7613;SDS011;3848;42.016;23.098;2024-02-16T14:50:21;3.87;;;1.70;;
7613;SDS011;3848;42.016;23.098;2024-02-16T14:52:49;1.60;;;1.50;;
7613;SDS011;3848;42.016;23.098;2024-02-16T14:55:16;2.77;;;1.60;;
7613;SDS011;3848;42.016;23.098;2024-02-16T14:57:43;4.60;;;1.63;;
7613;SDS011;3848;42.016;23.098;2024-02-16T15:00:11;1.73;;;1.57;;